Time;durP1;ratioP1;P1;durP2;ratioP2;P2;SDS_P1;SDS_P2;PMS_P1;PMS_P2;Temp;Humidity;BMP_temperature;BMP_pressure;BME280_temperature;BME280_humidity;BME280_pressure;Samples;Min_cycle;Max_cycle;Signal;HPM_P1;HPM_P2
2021/05/25 00:02:11;;;;;;;0.77;0.77;;;10.90;99.90;;;;;;4989670;28;20238;-85
2021/05/25 00:04:37;;;;;;;0.10;0.10;;;10.90;99.90;;;;;;4992313;28;20214;-85
2021/05/25 00:07:03;;;;;;;0.00;0.00;;;10.90;99.90;;;;;;4987932;28;20187;-85
2021/05/25 00:09:28;;;;;;;0.10;0.10;;;10.90;99.90;;;;;;4992463;28;20267;-85
2021/05/25 00:11:54;;;;;;;0.10;0.10;;;10.80;99.90;;;;;;4993975;28;20244;-85
2021/05/25 00:14:21;;;;;;;0.10;0.10;;;10.80;99.90;;;;;;5012426;28;20300;-84
2021/05/25 00:16:51;;;;;;;0.10;0.10;;;10.80;99.90;;;;;;4991158;28;20257;-84
2021/05/25 00:19:19;;;;;;;0.10;0.10;;;10.70;99.90;;;;;;4991952;28;20195;-85
2021/05/25 00:21:46;;;;;;;0.10;0.10;;;10.70;99.90;;;;;;4993423;28;20194;-84
2021/05/25 00:24:11;;;;;;;0.93;0.57;;;10.70;99.90;;;;;;4993697;28;20245;-85
2021/05/25 00:26:37;;;;;;;0.20;0.20;;;10.70;99.90;;;;;;4993997;28;20660;-85
2021/05/25 00:29:03;;;;;;;1.30;1.20;;;10.70;99.90;;;;;;5010654;28;20242;-85
2021/05/25 00:31:29;;;;;;;0.50;0.37;;;10.80;99.90;;;;;;5010915;28;20191;-85
2021/05/25 00:33:55;;;;;;;0.10;0.10;;;10.70;99.90;;;;;;5009851;28;20191;-85
2021/05/25 00:36:22;;;;;;;0.10;0.10;;;10.70;99.90;;;;;;5011319;28;20217;-85
2021/05/25 00:38:48;;;;;;;0.30;0.10;;;10.70;99.90;;;;;;4994340;28;20205;-85
2021/05/25 00:41:14;;;;;;;0.00;0.00;;;10.70;99.90;;;;;;5003934;28;20204;-85
2021/05/25 00:43:40;;;;;;;0.10;0.10;;;10.70;99.90;;;;;;5011137;28;20197;-85
2021/05/25 00:46:05;;;;;;;0.30;0.30;;;10.70;99.90;;;;;;4993445;28;20267;-85
2021/05/25 00:48:31;;;;;;;0.00;0.00;;;10.70;99.90;;;;;;5011637;28;20202;-85
2021/05/25 00:50:57;;;;;;;0.17;0.17;;;10.60;99.90;;;;;;4992816;28;20573;-86
2021/05/25 00:53:23;;;;;;;0.10;0.10;;;10.70;99.90;;;;;;5008124;28;20244;-85
2021/05/25 00:55:49;;;;;;;0.10;0.10;;;10.70;99.90;;;;;;4993903;28;20313;-85
2021/05/25 00:58:15;;;;;;;0.20;0.20;;;10.60;99.90;;;;;;4991758;28;20263;-85
2021/05/25 01:00:44;;;;;;;0.10;0.10;;;10.60;99.90;;;;;;4993027;28;20229;-86
2021/05/25 01:03:15;;;;;;;0.43;0.20;;;10.60;99.90;;;;;;4989841;28;20190;-85
2021/05/25 01:05:41;;;;;;;0.10;0.10;;;10.60;99.90;;;;;;4984564;28;20244;-85
2021/05/25 01:08:09;;;;;;;0.20;0.20;;;10.50;99.90;;;;;;5006283;28;20275;-84
2021/05/25 01:10:38;;;;;;;0.10;0.10;;;10.40;99.90;;;;;;5010585;28;20194;-85
2021/05/25 01:13:11;;;;;;;0.00;0.00;;;10.30;99.90;;;;;;4989054;28;20241;-85
2021/05/25 01:15:37;;;;;;;0.30;0.30;;;10.30;99.90;;;;;;5009779;28;20202;-85
2021/05/25 01:18:04;;;;;;;0.30;0.20;;;10.30;99.90;;;;;;5011778;28;20301;-85
2021/05/25 01:20:31;;;;;;;0.10;0.10;;;10.30;99.90;;;;;;5010891;28;20782;-85
2021/05/25 01:22:57;;;;;;;0.10;0.10;;;10.30;99.90;;;;;;4993272;28;20573;-85
2021/05/25 01:25:24;;;;;;;0.10;0.10;;;10.20;99.90;;;;;;4993814;28;20250;-85
2021/05/25 01:27:54;;;;;;;0.10;0.10;;;10.10;99.90;;;;;;4994328;28;20223;-85
2021/05/25 01:30:22;;;;;;;0.33;0.30;;;10.10;99.90;;;;;;5014630;28;20217;-84
2021/05/25 01:32:48;;;;;;;0.10;0.10;;;10.20;99.90;;;;;;4996136;28;20644;-85
2021/05/25 01:35:14;;;;;;;0.00;0.00;;;10.20;99.90;;;;;;4994956;28;20206;-84
2021/05/25 01:37:40;;;;;;;0.20;0.20;;;10.20;99.90;;;;;;4995853;28;20194;-85
2021/05/25 01:40:16;;;;;;;0.07;0.07;;;10.20;99.90;;;;;;5009916;28;20189;-84
2021/05/25 01:42:42;;;;;;;0.10;0.10;;;10.30;99.90;;;;;;5012909;28;20658;-85
2021/05/25 01:45:13;;;;;;;0.27;0.27;;;10.20;99.90;;;;;;4997557;28;20216;-85
2021/05/25 01:47:39;;;;;;;0.20;0.20;;;10.20;99.90;;;;;;4994966;28;20190;-85
2021/05/25 01:50:11;;;;;;;0.10;0.10;;;10.20;99.90;;;;;;4996343;28;20196;-85
2021/05/25 01:53:02;;;;;;;0.00;0.00;;;10.20;99.90;;;;;;4995598;28;20188;-86
2021/05/25 01:55:39;;;;;;;0.10;0.10;;;10.30;99.90;;;;;;4985762;28;20286;-84
2021/05/25 01:58:07;;;;;;;0.10;0.10;;;10.20;99.90;;;;;;5013981;28;20194;-85
2021/05/25 02:00:34;;;;;;;0.23;0.10;;;10.20;99.90;;;;;;5014247;28;20184;-85
2021/05/25 02:03:00;;;;;;;0.10;0.10;;;10.20;99.90;;;;;;4987353;28;20209;-85
2021/05/25 02:05:26;;;;;;;0.30;0.20;;;10.20;99.90;;;;;;4996174;28;20206;-85
2021/05/25 02:07:54;;;;;;;0.10;0.10;;;10.10;99.90;;;;;;4996377;28;20211;-85
2021/05/25 02:10:25;;;;;;;0.10;0.10;;;10.20;99.90;;;;;;5013695;28;20239;-85
2021/05/25 02:12:51;;;;;;;0.07;0.07;;;10.20;99.90;;;;;;5013857;28;20205;-85
2021/05/25 02:15:17;;;;;;;0.10;0.10;;;10.20;99.90;;;;;;5013762;28;20701;-85
2021/05/25 02:17:44;;;;;;;0.07;0.07;;;10.20;99.90;;;;;;5011963;28;20197;-84
2021/05/25 02:20:10;;;;;;;0.20;0.20;;;10.20;99.90;;;;;;4987434;28;20189;-85
2021/05/25 02:22:36;;;;;;;0.20;0.20;;;10.20;99.90;;;;;;4996176;28;20184;-85
2021/05/25 02:25:03;;;;;;;0.00;0.00;;;10.20;99.90;;;;;;4995917;28;20352;-85
2021/05/25 02:27:28;;;;;;;0.10;0.10;;;10.20;99.90;;;;;;4995760;28;20190;-85
2021/05/25 02:29:54;;;;;;;0.10;0.10;;;10.20;99.90;;;;;;4995458;28;20186;-84
2021/05/25 02:32:20;;;;;;;0.10;0.10;;;10.20;99.90;;;;;;4993837;28;20218;-85
2021/05/25 02:34:46;;;;;;;0.00;0.00;;;10.20;99.90;;;;;;5011854;28;20629;-85
2021/05/25 02:37:11;;;;;;;0.13;0.10;;;10.20;99.90;;;;;;4998924;28;20277;-85
2021/05/25 02:39:37;;;;;;;0.10;0.10;;;10.20;99.90;;;;;;4993763;28;20267;-85
2021/05/25 02:42:04;;;;;;;0.10;0.10;;;10.10;99.90;;;;;;4994675;28;20212;-84
2021/05/25 02:44:29;;;;;;;0.10;0.10;;;10.10;99.90;;;;;;4988589;28;20274;-85
2021/05/25 02:46:55;;;;;;;0.10;0.10;;;10.10;99.90;;;;;;5007345;28;20617;-85
2021/05/25 02:49:21;;;;;;;0.30;0.20;;;10.10;99.90;;;;;;4992532;28;20219;-84
2021/05/25 02:51:47;;;;;;;0.00;0.00;;;10.20;99.90;;;;;;4993300;28;20277;-85
2021/05/25 02:54:12;;;;;;;0.00;0.00;;;10.20;99.90;;;;;;4994062;28;20192;-84
2021/05/25 02:56:38;;;;;;;0.20;0.20;;;10.20;99.90;;;;;;5013356;28;20293;-85
2021/05/25 02:59:04;;;;;;;0.20;0.20;;;10.20;99.90;;;;;;5010001;23;20227;-81
2021/05/25 03:01:29;;;;;;;0.20;0.20;;;10.20;99.90;;;;;;4974314;28;20286;-82
2021/05/25 03:03:55;;;;;;;0.07;0.07;;;10.20;99.90;;;;;;5004723;28;20183;-82
2021/05/25 03:06:20;;;;;;;0.07;0.07;;;10.20;99.90;;;;;;4972224;28;20206;-83
2021/05/25 03:08:46;;;;;;;0.10;0.10;;;10.20;99.90;;;;;;4973466;28;20222;-82
2021/05/25 03:11:12;;;;;;;0.10;0.10;;;10.20;99.90;;;;;;4970164;28;20193;-82
2021/05/25 03:13:37;;;;;;;0.20;0.20;;;10.20;99.90;;;;;;4966935;28;20325;-82
2021/05/25 03:16:03;;;;;;;0.10;0.10;;;10.10;99.90;;;;;;4979322;28;20196;-82
2021/05/25 03:18:29;;;;;;;0.00;0.00;;;10.10;99.90;;;;;;4988216;28;20584;-83
2021/05/25 03:20:54;;;;;;;0.10;0.10;;;10.10;99.90;;;;;;4973638;28;20193;-85
2021/05/25 03:23:20;;;;;;;0.27;0.20;;;10.20;99.90;;;;;;4989847;28;20194;-82
2021/05/25 03:25:47;;;;;;;0.20;0.13;;;10.20;99.90;;;;;;4970371;28;20194;-82
2021/05/25 03:28:12;;;;;;;0.10;0.10;;;10.20;99.90;;;;;;4954569;28;20212;-82
2021/05/25 03:30:39;;;;;;;0.20;0.20;;;10.20;99.90;;;;;;4966117;28;20602;-82
2021/05/25 03:33:05;;;;;;;0.10;0.10;;;10.20;99.90;;;;;;4974166;28;20176;-82
2021/05/25 03:35:31;;;;;;;0.10;0.10;;;10.20;99.90;;;;;;4973354;28;20258;-80
2021/05/25 03:37:56;;;;;;;0.20;0.20;;;10.20;99.90;;;;;;4974148;28;20247;-81
2021/05/25 03:40:23;;;;;;;0.87;0.20;;;10.20;99.90;;;;;;4971402;28;20219;-81
2021/05/25 03:42:50;;;;;;;0.10;0.10;;;10.20;99.90;;;;;;4980829;28;20646;-82
2021/05/25 03:45:17;;;;;;;0.10;0.10;;;10.20;99.90;;;;;;4972894;28;20262;-82
2021/05/25 03:47:43;;;;;;;0.10;0.10;;;10.20;99.90;;;;;;4971974;28;20213;-81
2021/05/25 03:50:10;;;;;;;0.10;0.10;;;10.10;99.90;;;;;;4974096;28;20202;-82
2021/05/25 03:52:41;;;;;;;0.10;0.10;;;10.10;99.90;;;;;;4972121;28;20206;-81
2021/05/25 04:00:50;;;;;;;0.13;0.13;;;10.20;99.90;;;;;;4967735;28;20286;-80
2021/05/25 04:03:16;;;;;;;0.10;0.10;;;10.20;99.90;;;;;;4972751;28;20211;-83
2021/05/25 04:05:42;;;;;;;0.10;0.10;;;10.20;99.90;;;;;;4973850;28;20224;-84
2021/05/25 04:08:14;;;;;;;0.00;0.00;;;10.20;99.90;;;;;;4973972;28;20274;-81
2021/05/25 04:10:39;;;;;;;0.10;0.10;;;10.20;99.90;;;;;;4961078;28;20199;-81
2021/05/25 04:13:05;;;;;;;0.10;0.10;;;10.30;99.90;;;;;;4961552;28;20194;-82
2021/05/25 04:15:31;;;;;;;0.53;0.10;;;10.40;99.90;;;;;;4974805;28;20270;-81
2021/05/25 04:17:56;;;;;;;0.00;0.00;;;10.30;99.90;;;;;;4972011;28;20219;-83
2021/05/25 04:20:23;;;;;;;0.10;0.10;;;10.40;99.90;;;;;;4989143;28;20210;-83
2021/05/25 04:22:49;;;;;;;0.13;0.13;;;10.30;99.90;;;;;;4968976;28;20621;-82
2021/05/25 04:25:15;;;;;;;0.20;0.20;;;10.30;99.90;;;;;;4966125;28;20194;-82
2021/05/25 04:27:41;;;;;;;0.00;0.00;;;10.30;99.90;;;;;;4971950;28;20262;-82
2021/05/25 04:30:08;;;;;;;0.10;0.10;;;10.30;99.90;;;;;;4988996;28;20176;-82
2021/05/25 04:32:34;;;;;;;0.10;0.10;;;10.30;99.90;;;;;;4961239;28;20305;-82
2021/05/25 04:35:00;;;;;;;0.10;0.10;;;10.30;99.90;;;;;;4973991;28;20758;-81
2021/05/25 04:37:25;;;;;;;0.10;0.10;;;10.30;99.90;;;;;;4971369;28;20218;-82
2021/05/25 04:39:51;;;;;;;0.10;0.10;;;10.30;99.90;;;;;;4983833;28;20195;-83
2021/05/25 04:42:16;;;;;;;0.23;0.23;;;10.40;99.90;;;;;;4966486;28;20200;-85
2021/05/25 04:44:42;;;;;;;0.17;0.17;;;10.40;99.90;;;;;;4966165;28;20202;-85
2021/05/25 04:47:08;;;;;;;0.27;0.27;;;10.40;99.90;;;;;;4971256;28;20719;-85
2021/05/25 04:49:36;;;;;;;0.00;0.00;;;10.30;99.90;;;;;;4975940;28;20290;-86
2021/05/25 04:52:02;;;;;;;0.20;0.20;;;10.30;99.90;;;;;;4967958;28;20627;-85
2021/05/25 04:54:28;;;;;;;0.87;0.10;;;10.30;99.90;;;;;;4967675;28;20242;-86
2021/05/25 04:56:55;;;;;;;0.10;0.10;;;10.30;99.90;;;;;;4971634;28;20201;-82
2021/05/25 04:59:20;;;;;;;0.00;0.00;;;10.40;99.90;;;;;;4964039;28;20214;-81
2021/05/25 05:01:46;;;;;;;0.20;0.10;;;10.30;99.90;;;;;;4969724;28;20194;-82
2021/05/25 05:04:12;;;;;;;0.10;0.10;;;10.30;99.90;;;;;;4990986;28;20193;-83
2021/05/25 05:06:37;;;;;;;0.10;0.10;;;10.30;99.90;;;;;;4986582;28;21082;-81
2021/05/25 05:09:04;;;;;;;0.73;0.30;;;10.30;99.90;;;;;;4991991;28;20213;-82
2021/05/25 05:11:31;;;;;;;0.10;0.10;;;10.20;99.90;;;;;;4975472;28;20652;-81
2021/05/25 05:13:57;;;;;;;0.10;0.10;;;10.20;99.90;;;;;;4991410;28;20577;-81
2021/05/25 05:16:23;;;;;;;0.10;0.10;;;10.20;99.90;;;;;;4974953;28;20230;-85
2021/05/25 05:18:48;;;;;;;0.10;0.10;;;10.20;99.90;;;;;;4976587;28;20223;-84
2021/05/25 05:21:14;;;;;;;0.10;0.10;;;10.20;99.90;;;;;;4976050;28;20275;-83
2021/05/25 05:23:40;;;;;;;0.10;0.10;;;10.30;99.90;;;;;;4975248;28;20219;-82
2021/05/25 05:26:23;;;;;;;0.10;0.10;;;10.30;99.90;;;;;;4962788;28;20195;-83
2021/05/25 05:28:48;;;;;;;0.10;0.10;;;10.30;99.90;;;;;;4994969;28;20254;-82
2021/05/25 05:31:14;;;;;;;0.10;0.10;;;10.40;99.90;;;;;;4976468;28;20186;-87
2021/05/25 05:33:40;;;;;;;0.27;0.27;;;10.40;99.90;;;;;;4974168;28;20187;-85
2021/05/25 05:36:17;;;;;;;0.17;0.17;;;10.40;99.90;;;;;;4973944;28;20181;-85
2021/05/25 05:38:44;;;;;;;1.20;1.20;;;10.50;99.90;;;;;;4971064;28;20214;-85
2021/05/25 05:41:10;;;;;;;0.10;0.10;;;10.60;99.90;;;;;;4957173;28;20209;-86
2021/05/25 05:43:36;;;;;;;0.27;0.27;;;10.60;99.90;;;;;;4972297;28;20196;-84
2021/05/25 05:46:01;;;;;;;0.10;0.10;;;10.60;99.90;;;;;;4975630;28;20196;-82
2021/05/25 05:48:27;;;;;;;0.10;0.10;;;10.50;99.90;;;;;;4976232;28;20215;-84
2021/05/25 05:50:53;;;;;;;0.20;0.20;;;10.40;99.90;;;;;;4995481;28;20277;-82
2021/05/25 05:53:19;;;;;;;0.10;0.10;;;10.40;99.90;;;;;;4975684;28;20192;-81
2021/05/25 05:55:44;;;;;;;0.10;0.10;;;10.50;99.90;;;;;;4968087;28;20192;-83
2021/05/25 05:58:10;;;;;;;0.20;0.20;;;10.70;99.90;;;;;;4990864;28;20224;-81
2021/05/25 06:00:37;;;;;;;0.10;0.10;;;11.00;99.90;;;;;;4972026;28;20196;-83
2021/05/25 06:03:21;;;;;;;0.00;0.00;;;11.20;99.90;;;;;;4973297;28;20184;-83
2021/05/25 06:05:46;;;;;;;0.10;0.10;;;11.30;99.90;;;;;;4975678;28;20208;-81
2021/05/25 06:08:13;;;;;;;0.23;0.23;;;11.30;99.90;;;;;;4974910;28;20246;-82
2021/05/25 06:10:42;;;;;;;0.10;0.10;;;11.30;99.90;;;;;;4975343;28;20274;-82
2021/05/25 06:13:08;;;;;;;0.03;0.03;;;11.10;99.90;;;;;;4974109;28;20189;-81
2021/05/25 06:15:34;;;;;;;0.10;0.10;;;11.10;99.90;;;;;;4972937;28;20298;-82
2021/05/25 06:18:00;;;;;;;0.10;0.10;;;10.90;99.90;;;;;;4991075;28;20223;-82
2021/05/25 06:20:29;;;;;;;0.10;0.10;;;10.90;99.90;;;;;;4974756;28;20187;-82
2021/05/25 06:22:56;;;;;;;0.83;0.37;;;10.90;99.90;;;;;;4977872;28;20187;-82
2021/05/25 06:25:22;;;;;;;0.10;0.10;;;10.90;99.90;;;;;;4973140;28;20190;-85
2021/05/25 06:27:48;;;;;;;4.97;0.30;;;10.80;99.90;;;;;;4969492;28;20226;-82
2021/05/25 06:30:14;;;;;;;0.00;0.00;;;10.80;99.90;;;;;;4973996;28;20584;-83
2021/05/25 06:32:41;;;;;;;0.13;0.13;;;10.70;99.90;;;;;;4989664;28;20195;-81
2021/05/25 06:35:07;;;;;;;0.57;0.30;;;10.80;99.90;;;;;;4972028;28;20192;-80
2021/05/25 06:37:33;;;;;;;0.10;0.10;;;11.00;99.90;;;;;;4981275;28;20205;-82
2021/05/25 06:39:59;;;;;;;0.10;0.10;;;11.00;99.90;;;;;;4974375;28;20192;-82
2021/05/25 06:42:24;;;;;;;0.00;0.00;;;11.00;99.90;;;;;;4973796;28;20189;-82
2021/05/25 06:44:50;;;;;;;0.10;0.10;;;11.00;99.90;;;;;;4972402;28;20190;-81
2021/05/25 06:47:16;;;;;;;0.10;0.10;;;10.90;99.90;;;;;;4977972;28;20205;-82
2021/05/25 06:49:41;;;;;;;0.10;0.10;;;10.90;99.90;;;;;;4971582;28;20548;-85
2021/05/25 06:52:08;;;;;;;0.10;0.10;;;11.10;99.90;;;;;;4972351;28;20180;-81
2021/05/25 06:54:37;;;;;;;0.10;0.10;;;11.10;99.90;;;;;;4971970;28;20284;-84
2021/05/25 06:57:03;;;;;;;0.10;0.10;;;11.00;99.90;;;;;;4968475;28;20731;-80
2021/05/25 06:59:28;;;;;;;0.00;0.00;;;11.00;99.90;;;;;;4966915;28;20220;-78
2021/05/25 07:01:54;;;;;;;0.00;0.00;;;11.00;99.90;;;;;;4960746;28;20199;-80
2021/05/25 07:04:22;;;;;;;0.03;0.03;;;10.90;99.90;;;;;;4963405;28;20597;-79
2021/05/25 07:06:48;;;;;;;0.20;0.20;;;11.00;99.90;;;;;;4968730;28;20201;-83
2021/05/25 07:09:14;;;;;;;0.10;0.10;;;11.00;99.90;;;;;;4969720;28;20227;-80
2021/05/25 07:11:40;;;;;;;0.10;0.10;;;11.00;99.90;;;;;;4962977;28;20192;-80
2021/05/25 07:14:06;;;;;;;0.10;0.10;;;11.00;99.90;;;;;;4985628;28;20184;-81
2021/05/25 07:16:34;;;;;;;0.10;0.10;;;11.10;99.90;;;;;;4972899;28;20720;-81
2021/05/25 07:19:00;;;;;;;0.10;0.10;;;11.10;99.90;;;;;;4971769;28;20257;-80
2021/05/25 07:21:26;;;;;;;0.10;0.10;;;11.20;99.90;;;;;;4970438;28;20626;-82
2021/05/25 07:23:51;;;;;;;0.10;0.10;;;11.20;99.90;;;;;;4969574;28;20566;-80
2021/05/25 07:26:17;;;;;;;0.10;0.10;;;11.10;99.90;;;;;;4984071;28;20194;-78
2021/05/25 07:28:43;;;;;;;0.27;0.13;;;11.10;99.90;;;;;;4969236;28;20223;-79
2021/05/25 07:31:09;;;;;;;0.10;0.10;;;11.10;99.90;;;;;;4968172;28;20187;-80
2021/05/25 07:33:35;;;;;;;0.10;0.10;;;11.20;99.90;;;;;;4964742;28;20307;-80
2021/05/25 07:36:01;;;;;;;0.10;0.10;;;11.00;99.90;;;;;;4973577;28;20267;-80
2021/05/25 07:38:27;;;;;;;0.10;0.10;;;11.10;99.90;;;;;;4971425;28;20241;-80
2021/05/25 07:40:53;;;;;;;0.10;0.10;;;11.20;99.90;;;;;;4973630;28;20204;-80
2021/05/25 07:43:19;;;;;;;0.10;0.10;;;11.40;99.90;;;;;;4961235;28;20187;-80
2021/05/25 07:45:45;;;;;;;0.07;0.07;;;11.40;99.90;;;;;;4971469;28;20202;-81
2021/05/25 07:48:11;;;;;;;0.10;0.10;;;11.40;99.90;;;;;;4974234;28;20624;-81
2021/05/25 07:50:37;;;;;;;0.10;0.10;;;11.40;99.90;;;;;;4967882;28;20310;-82
2021/05/25 07:53:02;;;;;;;0.10;0.10;;;11.40;99.90;;;;;;4973322;28;20191;-81
2021/05/25 07:55:30;;;;;;;0.00;0.00;;;11.40;99.90;;;;;;4973564;28;20180;-81
2021/05/25 07:57:57;;;;;;;0.10;0.10;;;11.40;99.90;;;;;;4970524;28;20227;-78
2021/05/25 08:00:24;;;;;;;0.10;0.10;;;11.20;99.90;;;;;;4968252;28;20230;-80
2021/05/25 08:02:50;;;;;;;0.10;0.10;;;11.30;99.90;;;;;;4980459;28;20180;-80
2021/05/25 08:05:17;;;;;;;0.20;0.20;;;11.20;99.90;;;;;;4967974;28;20185;-80
2021/05/25 08:07:43;;;;;;;0.10;0.10;;;11.10;99.90;;;;;;4974144;28;20200;-80
2021/05/25 08:10:12;;;;;;;0.10;0.10;;;11.00;99.90;;;;;;4970364;28;20192;-80
2021/05/25 08:12:37;;;;;;;0.07;0.07;;;11.00;99.90;;;;;;4969706;28;20266;-81
2021/05/25 08:15:06;;;;;;;0.10;0.10;;;11.00;99.90;;;;;;4974512;28;20279;-79
2021/05/25 08:20:18;;;;;;;0.10;0.10;;;11.10;99.90;;;;;;4974778;28;20199;-78
2021/05/25 08:22:51;;;;;;;0.10;0.10;;;11.10;99.90;;;;;;4973467;28;20200;-80
2021/05/25 08:25:20;;;;;;;0.10;0.10;;;11.20;99.90;;;;;;4969468;28;20194;-79
2021/05/25 08:27:47;;;;;;;0.10;0.10;;;11.10;99.90;;;;;;4969749;28;20207;-77
2021/05/25 08:30:18;;;;;;;0.10;0.10;;;11.10;99.90;;;;;;4988155;28;20687;-79
2021/05/25 08:32:44;;;;;;;0.10;0.10;;;11.00;99.90;;;;;;4976478;28;20195;-80
2021/05/25 08:35:11;;;;;;;0.10;0.10;;;10.90;99.90;;;;;;4974802;28;20185;-81
2021/05/25 08:37:37;;;;;;;0.10;0.10;;;10.90;99.90;;;;;;4961131;28;20217;-78
2021/05/25 08:40:09;;;;;;;0.10;0.10;;;11.10;99.90;;;;;;4969270;28;20232;-79
2021/05/25 08:42:34;;;;;;;0.10;0.10;;;11.40;99.90;;;;;;4964504;28;20702;-80
2021/05/25 08:45:10;;;;;;;0.03;0.03;;;11.60;99.90;;;;;;4972840;28;20186;-80
2021/05/25 08:47:36;;;;;;;0.03;0.03;;;11.70;99.90;;;;;;4971183;28;20261;-80
2021/05/25 08:50:04;;;;;;;0.10;0.10;;;11.90;99.90;;;;;;4969869;28;20717;-80
2021/05/25 08:52:30;;;;;;;0.13;0.13;;;11.90;99.90;;;;;;4970963;28;20733;-81
2021/05/25 08:54:56;;;;;;;0.20;0.20;;;11.80;99.90;;;;;;4959949;28;20274;-80
2021/05/25 08:57:21;;;;;;;0.07;0.07;;;11.70;99.90;;;;;;4960407;28;20181;-80
2021/05/25 08:59:47;;;;;;;0.10;0.10;;;11.70;99.90;;;;;;4969330;28;20203;-80
2021/05/25 09:02:14;;;;;;;0.30;0.23;;;11.70;99.90;;;;;;4969951;28;20197;-81
2021/05/25 09:05:00;;;;;;;0.10;0.10;;;11.80;99.90;;;;;;4970753;28;20191;-81
2021/05/25 09:07:44;;;;;;;0.03;0.03;;;11.80;99.90;;;;;;4971806;28;20192;-80
2021/05/25 09:10:15;;;;;;;0.10;0.10;;;11.90;99.90;;;;;;4971556;28;20199;-80
2021/05/25 09:12:49;;;;;;;0.00;0.00;;;11.90;99.90;;;;;;4974485;28;20279;-81
2021/05/25 09:15:49;;;;;;;0.00;0.00;;;12.00;99.90;;;;;;4966084;28;20270;-81
2021/05/25 09:18:27;;;;;;;0.10;0.10;;;11.90;99.90;;;;;;4967187;28;20221;-81
2021/05/25 09:21:05;;;;;;;0.20;0.20;;;11.80;99.90;;;;;;4973249;28;20668;-81
2021/05/25 09:23:38;;;;;;;0.10;0.10;;;11.70;99.90;;;;;;4971023;28;20189;-81
2021/05/25 09:26:13;;;;;;;0.10;0.10;;;11.70;99.90;;;;;;4962438;28;20192;-80
2021/05/25 09:28:57;;;;;;;0.10;0.10;;;11.60;99.90;;;;;;4960443;28;20309;-81
2021/05/25 09:31:35;;;;;;;0.10;0.10;;;11.70;99.90;;;;;;4974524;28;20176;-82
2021/05/25 09:34:27;;;;;;;0.07;0.07;;;11.70;99.90;;;;;;4973613;28;20211;-81
2021/05/25 09:37:09;;;;;;;0.10;0.10;;;11.60;99.90;;;;;;4976039;28;20280;-81
2021/05/25 09:39:40;;;;;;;0.20;0.20;;;11.50;99.90;;;;;;4967742;28;20256;-81
2021/05/25 09:42:12;;;;;;;0.60;0.60;;;11.30;99.90;;;;;;4974652;28;20246;-80
2021/05/25 09:44:41;;;;;;;0.00;0.00;;;11.30;99.90;;;;;;4973824;28;20251;-81
2021/05/25 09:47:06;;;;;;;0.00;0.00;;;11.30;99.90;;;;;;4974570;28;20196;-81
2021/05/25 09:49:34;;;;;;;0.10;0.10;;;11.40;99.90;;;;;;4974448;28;20219;-80
2021/05/25 09:52:08;;;;;;;0.10;0.10;;;11.50;99.90;;;;;;4973248;28;20195;-81
2021/05/25 09:54:35;;;;;;;0.10;0.10;;;11.60;99.90;;;;;;4970391;28;20217;-80
2021/05/25 09:57:04;;;;;;;0.10;0.10;;;11.60;99.90;;;;;;4956792;28;20216;-81
2021/05/25 09:59:38;;;;;;;0.17;0.17;;;11.70;99.90;;;;;;4967453;28;20231;-81
2021/05/25 10:02:18;;;;;;;0.00;0.00;;;11.60;99.90;;;;;;4959130;28;20204;-81
2021/05/25 10:05:00;;;;;;;0.10;0.10;;;11.50;99.90;;;;;;4976152;28;20202;-81
2021/05/25 10:07:28;;;;;;;0.10;0.10;;;11.50;99.90;;;;;;4975507;28;20206;-82
2021/05/25 10:09:55;;;;;;;0.10;0.10;;;11.70;99.90;;;;;;4975265;28;20223;-81
2021/05/25 10:12:25;;;;;;;0.10;0.10;;;12.10;99.90;;;;;;4963601;28;20184;-82
2021/05/25 10:14:51;;;;;;;0.20;0.20;;;12.20;99.90;;;;;;4956319;28;20188;-80
2021/05/25 10:20:01;;;;;;;0.03;0.03;;;12.50;99.90;;;;;;4974481;28;20206;-81
2021/05/25 10:22:26;;;;;;;0.10;0.10;;;12.40;99.90;;;;;;4976328;28;20188;-81
2021/05/25 10:24:53;;;;;;;0.10;0.10;;;12.30;99.90;;;;;;4985707;28;20192;-81
2021/05/25 10:27:19;;;;;;;0.10;0.10;;;12.30;99.90;;;;;;4979439;28;20192;-80
2021/05/25 10:29:45;;;;;;;0.10;0.10;;;12.20;99.90;;;;;;4991297;28;20215;-81
2021/05/25 10:32:22;;;;;;;0.10;0.10;;;12.20;99.90;;;;;;4993427;28;20222;-81
2021/05/25 10:34:50;;;;;;;0.37;0.10;;;12.10;99.90;;;;;;4977771;28;20231;-79
2021/05/25 10:37:16;;;;;;;0.10;0.10;;;12.10;99.90;;;;;;4976386;28;20184;-81
2021/05/25 10:39:44;;;;;;;0.10;0.10;;;12.00;99.90;;;;;;4973666;28;20199;-79
2021/05/25 10:42:19;;;;;;;0.10;0.10;;;11.90;99.90;;;;;;4990332;28;20696;-79
2021/05/25 10:44:45;;;;;;;0.10;0.10;;;11.80;99.90;;;;;;4975311;28;20277;-77
2021/05/25 10:47:20;;;;;;;0.10;0.10;;;11.80;99.90;;;;;;4964393;28;20189;-80
2021/05/25 10:52:53;;;;;;;0.63;0.20;;;11.70;99.90;;;;;;4959144;28;20223;-82
2021/05/25 10:55:40;;;;;;;0.10;0.10;;;11.80;99.90;;;;;;4988794;28;20191;-79
2021/05/25 10:58:18;;;;;;;0.70;0.70;;;11.80;99.90;;;;;;4963093;28;20664;-77
2021/05/25 11:00:45;;;;;;;0.10;0.10;;;11.80;99.90;;;;;;4974103;28;20198;-78
2021/05/25 11:03:10;;;;;;;0.13;0.13;;;11.60;99.90;;;;;;4973735;28;20182;-78
2021/05/25 11:05:48;;;;;;;0.10;0.10;;;11.40;99.90;;;;;;4974246;28;20183;-79
2021/05/25 11:08:14;;;;;;;0.17;0.17;;;11.40;99.90;;;;;;4971973;28;20243;-80
2021/05/25 11:10:46;;;;;;;0.10;0.10;;;11.00;99.90;;;;;;4969190;28;21238;-78
2021/05/25 11:13:15;;;;;;;0.10;0.10;;;10.70;99.90;;;;;;4968290;28;20199;-79
2021/05/25 11:16:03;;;;;;;0.40;0.30;;;10.50;99.90;;;;;;4968800;28;20216;-79
2021/05/25 11:21:13;;;;;;;0.10;0.10;;;10.30;99.90;;;;;;4967942;28;20263;-80
2021/05/25 11:23:39;;;;;;;0.20;0.20;;;10.40;99.90;;;;;;4969555;28;20190;-79
2021/05/25 11:26:05;;;;;;;0.20;0.20;;;10.50;99.90;;;;;;4974338;28;20187;-80
2021/05/25 11:29:08;;;;;;;0.10;0.10;;;10.60;99.90;;;;;;4971893;28;20271;-79
2021/05/25 11:31:38;;;;;;;0.10;0.10;;;10.70;99.90;;;;;;4968454;28;20192;-80
2021/05/25 11:34:05;;;;;;;0.00;0.00;;;10.80;99.90;;;;;;4971846;28;20180;-80
2021/05/25 11:36:31;;;;;;;0.10;0.10;;;11.00;99.90;;;;;;4973047;28;20211;-78
2021/05/25 11:38:56;;;;;;;0.10;0.10;;;11.40;99.90;;;;;;4971645;28;20207;-80
2021/05/25 11:41:22;;;;;;;0.10;0.10;;;11.80;99.90;;;;;;4972328;28;20567;-80
2021/05/25 11:43:48;;;;;;;0.13;0.10;;;12.20;99.90;;;;;;4972062;28;20192;-78
2021/05/25 11:46:14;;;;;;;0.10;0.10;;;12.30;99.90;;;;;;4971765;28;20563;-80
2021/05/25 11:48:40;;;;;;;0.20;0.20;;;12.40;99.90;;;;;;4970132;28;20223;-77
2021/05/25 11:51:09;;;;;;;0.20;0.20;;;12.70;99.90;;;;;;4972168;28;20626;-80
2021/05/25 11:53:37;;;;;;;0.10;0.10;;;13.00;99.90;;;;;;4972178;28;20208;-80
2021/05/25 11:56:03;;;;;;;0.10;0.10;;;13.30;99.90;;;;;;4970045;28;20189;-80
2021/05/25 11:58:28;;;;;;;0.10;0.10;;;13.60;99.90;;;;;;4987199;28;20224;-80
2021/05/25 12:00:54;;;;;;;0.10;0.10;;;13.80;99.90;;;;;;4973442;28;20776;-78
2021/05/25 12:03:19;;;;;;;0.10;0.10;;;14.00;99.90;;;;;;4968255;28;20196;-79
2021/05/25 12:05:45;;;;;;;0.00;0.00;;;14.00;99.90;;;;;;4965394;28;20198;-80
2021/05/25 12:08:11;;;;;;;0.10;0.10;;;14.00;99.90;;;;;;4962401;28;20888;-80
2021/05/25 12:10:42;;;;;;;0.07;0.07;;;13.70;99.90;;;;;;4982692;28;20193;-80
2021/05/25 12:13:12;;;;;;;0.10;0.10;;;13.30;99.90;;;;;;4966674;28;20424;-79
2021/05/25 12:15:49;;;;;;;0.10;0.10;;;13.20;99.90;;;;;;4963637;28;20196;-80
2021/05/25 12:18:17;;;;;;;0.10;0.10;;;13.00;99.90;;;;;;4970160;28;20211;-81
2021/05/25 12:20:44;;;;;;;0.10;0.10;;;13.00;99.90;;;;;;4981747;28;20204;-81
2021/05/25 12:23:12;;;;;;;0.10;0.10;;;13.20;99.90;;;;;;4970964;28;20564;-81
2021/05/25 12:25:38;;;;;;;0.10;0.10;;;12.90;99.90;;;;;;4961437;28;20875;-81
2021/05/25 12:28:10;;;;;;;0.10;0.10;;;12.70;99.90;;;;;;4963666;28;20212;-80
2021/05/25 12:30:44;;;;;;;0.30;0.30;;;12.50;99.90;;;;;;4981411;28;20736;-81
2021/05/25 12:33:19;;;;;;;0.10;0.10;;;12.60;99.90;;;;;;4963662;28;20190;-81
2021/05/25 12:35:46;;;;;;;0.40;0.40;;;12.60;99.90;;;;;;4986179;28;20198;-81
2021/05/25 12:38:17;;;;;;;0.30;0.30;;;12.30;99.90;;;;;;4972890;28;20212;-81
2021/05/25 12:40:56;;;;;;;0.10;0.10;;;12.80;99.90;;;;;;4966023;28;20242;-79
2021/05/25 12:43:35;;;;;;;0.10;0.10;;;13.10;99.90;;;;;;4963245;28;20185;-79
2021/05/25 12:46:10;;;;;;;0.00;0.00;;;13.50;99.90;;;;;;4977897;28;20188;-80
2021/05/25 12:48:39;;;;;;;0.10;0.10;;;13.70;99.90;;;;;;4976806;28;20226;-79
2021/05/25 12:51:05;;;;;;;0.10;0.10;;;14.00;99.90;;;;;;4972540;28;20216;-79
2021/05/25 12:53:31;;;;;;;0.10;0.10;;;14.10;99.90;;;;;;4968571;28;20584;-79
2021/05/25 12:56:03;;;;;;;0.00;0.00;;;14.30;99.90;;;;;;4974068;28;20181;-79
2021/05/25 12:58:43;;;;;;;0.10;0.10;;;14.60;99.90;;;;;;4970715;28;20224;-79
2021/05/25 13:01:28;;;;;;;0.20;0.20;;;14.80;99.90;;;;;;4970968;28;20230;-79
2021/05/25 13:04:14;;;;;;;0.10;0.10;;;15.00;99.90;;;;;;4972455;28;20213;-80
2021/05/25 13:06:51;;;;;;;0.10;0.10;;;15.10;99.90;;;;;;4972231;28;20189;-80
2021/05/25 13:09:28;;;;;;;0.60;0.20;;;15.10;99.90;;;;;;4984320;28;20262;-80
2021/05/25 13:12:03;;;;;;;0.40;0.30;;;15.00;99.90;;;;;;4970625;28;20200;-80